createdAt,value
2022-08-06T00:00:13.682Z,90.1
2022-08-06T00:01:14.280Z,90.5
2022-08-06T00:02:14.872Z,90.6
2022-08-06T00:03:16.462Z,90.6
2022-08-06T00:04:17.069Z,90.7
2022-08-06T00:05:29.702Z,90.5
2022-08-06T00:06:20.248Z,89.9
2022-08-06T00:07:22.660Z,90.6
2022-08-06T00:08:21.468Z,90.6
2022-08-06T00:09:23.058Z,90.5
2022-08-06T00:10:29.293Z,90.3
2022-08-06T00:11:25.241Z,90.2
2022-08-06T00:12:29.672Z,91.0
2022-08-06T00:13:28.416Z,90.7
2022-08-06T00:14:30.003Z,90.8
2022-08-06T00:16:06.186Z,91.1
2022-08-06T00:16:38.855Z,92.0
2022-08-06T00:17:34.770Z,91.8
2022-08-06T00:18:35.365Z,91.5
2022-08-06T00:19:58.038Z,91.8
2022-08-06T00:20:41.858Z,91.7
2022-08-06T00:21:41.247Z,91.6
2022-08-06T00:22:41.430Z,92.0
2022-08-06T00:23:52.557Z,92.1
2022-08-06T00:24:43.641Z,91.5
2022-08-06T00:25:44.880Z,91.6
2022-08-06T00:26:51.596Z,91.9
2022-08-06T00:27:52.211Z,91.8
2022-08-06T00:28:49.251Z,91.7
2022-08-06T00:29:51.538Z,91.6
2022-08-06T00:30:51.453Z,91.3
2022-08-06T00:31:52.837Z,91.7
2022-08-06T00:32:53.430Z,91.6
2022-08-06T00:33:57.647Z,91.6
2022-08-06T00:34:55.616Z,91.6
2022-08-06T00:35:59.345Z,91.2
2022-08-06T00:36:58.787Z,91.7
2022-08-06T00:37:59.662Z,91.9
2022-08-06T00:39:00.642Z,91.6
2022-08-06T00:40:01.299Z,91.8
2022-08-06T00:41:01.896Z,92.3
2022-08-06T00:42:02.493Z,92.3
2022-08-06T00:43:06.001Z,92.4
2022-08-06T00:44:04.673Z,92.4
2022-08-06T00:45:06.264Z,92.9
2022-08-06T00:46:16.199Z,92.9
2022-08-06T00:47:23.281Z,93.2
2022-08-06T00:48:21.689Z,93.0
2022-08-06T00:49:12.627Z,93.7
2022-08-06T00:50:13.231Z,93.6
2022-08-06T00:51:18.450Z,93.3
2022-08-06T00:52:19.602Z,93.5
2022-08-06T00:53:17.642Z,92.9
2022-08-06T00:54:19.232Z,92.5
2022-08-06T00:55:19.842Z,92.5
2022-08-06T00:56:26.689Z,92.9
2022-08-06T00:57:22.698Z,92.8
2022-08-06T00:58:23.631Z,93.1
2022-08-06T00:59:25.218Z,93.5
2022-08-06T01:00:30.414Z,94.3
2022-08-06T01:01:28.440Z,94.7
2022-08-06T01:02:30.228Z,94.8
2022-08-06T01:03:41.853Z,95.3
2022-08-06T01:04:32.495Z,95.1
2022-08-06T01:06:04.856Z,95.5
2022-08-06T01:06:55.440Z,95.7
2022-08-06T01:07:51.387Z,95.4
2022-08-06T01:08:36.878Z,95.6
2022-08-06T01:09:57.343Z,95.7
2022-08-06T01:10:42.476Z,95.2
2022-08-06T01:11:41.643Z,95.0
2022-08-06T01:12:42.238Z,95.1
2022-08-06T01:14:01.826Z,94.8
2022-08-06T01:14:45.414Z,95.2
2022-08-06T01:16:07.133Z,94.9
2022-08-06T01:16:48.743Z,94.5
2022-08-06T01:17:49.290Z,94.2
2022-08-06T01:18:58.658Z,94.2
2022-08-06T01:21:56.646Z,94.0
2022-08-06T01:21:57.219Z,94.2
2022-08-06T01:22:29.801Z,93.7
2022-08-06T01:22:57.229Z,93.4
2022-08-06T01:23:57.840Z,93.1
2022-08-06T01:24:58.450Z,92.9
2022-08-06T01:25:59.268Z,92.4
2022-08-06T01:26:59.863Z,92.8
2022-08-06T01:28:00.462Z,92.9
2022-08-06T01:29:01.057Z,93.2
2022-08-06T01:30:01.796Z,93.5
2022-08-06T01:31:03.187Z,93.0
2022-08-06T01:32:03.800Z,93.2
2022-08-06T01:33:10.587Z,93.2
2022-08-06T01:34:06.974Z,93.6
2022-08-06T01:35:08.987Z,94.0
2022-08-06T01:36:08.611Z,93.6
2022-08-06T01:37:09.204Z,93.0
2022-08-06T01:38:10.403Z,92.5
2022-08-06T01:39:11.964Z,92.0
2022-08-06T01:40:12.678Z,91.5
2022-08-06T01:41:14.231Z,92.0
2022-08-06T01:42:14.826Z,90.1
2022-08-06T01:43:23.267Z,90.3
2022-08-06T01:44:17.331Z,89.9
2022-08-06T01:45:17.927Z,88.9
2022-08-06T01:46:19.515Z,88.3
2022-08-06T01:47:21.170Z,87.9
2022-08-06T01:48:21.700Z,88.5
2022-08-06T01:49:24.946Z,88.4
2022-08-06T01:50:28.161Z,88.2
2022-08-06T01:52:14.024Z,88.4
2022-08-06T01:52:30.002Z,89.1
2022-08-06T01:53:30.152Z,88.6
2022-08-06T01:54:31.226Z,88.5
2022-08-06T01:55:56.849Z,88.9
2022-08-06T01:56:56.156Z,88.6
2022-08-06T01:58:19.368Z,89.6
2022-08-06T01:58:37.085Z,88.6
2022-08-06T01:59:37.681Z,89.3
2022-08-06T02:00:38.479Z,88.6
2022-08-06T02:01:54.617Z,88.9
2022-08-06T02:02:42.145Z,89.2
2022-08-06T02:03:53.162Z,89.2
2022-08-06T02:04:43.836Z,89.8
2022-08-06T02:05:53.959Z,89.8
2022-08-06T02:06:49.365Z,89.6
2022-08-06T02:08:36.376Z,89.0
2022-08-06T02:08:49.559Z,88.7
2022-08-06T02:09:50.350Z,89.8
2022-08-06T02:10:51.938Z,89.6
2022-08-06T02:12:02.564Z,89.7
2022-08-06T02:12:54.616Z,89.2
2022-08-06T02:13:56.203Z,89.8
2022-08-06T02:14:56.795Z,90.2
2022-08-06T02:15:59.718Z,90.4
2022-08-06T02:16:58.981Z,90.8
2022-08-06T02:18:07.052Z,89.9
2022-08-06T02:19:09.774Z,91.4
2022-08-06T02:20:18.688Z,91.3
2022-08-06T02:21:18.886Z,90.3
2022-08-06T02:22:05.944Z,91.4
2022-08-06T02:23:08.566Z,91.3
2022-08-06T02:24:08.834Z,90.8
2022-08-06T02:25:14.944Z,89.9
2022-08-06T02:26:11.030Z,90.9
2022-08-06T02:27:12.619Z,91.0
2022-08-06T02:28:21.361Z,91.7
2022-08-06T02:29:15.795Z,90.2
2022-08-06T02:30:16.504Z,90.4
2022-08-06T02:31:22.668Z,91.0
2022-08-06T02:32:19.772Z,91.7
2022-08-06T02:33:20.363Z,91.7
2022-08-06T02:34:27.287Z,91.8
2022-08-06T02:35:23.582Z,91.8
2022-08-06T02:36:26.618Z,92.0
2022-08-06T02:38:02.157Z,91.9
2022-08-06T02:38:28.721Z,92.0
2022-08-06T02:39:30.063Z,92.2
2022-08-06T02:40:29.512Z,92.1
2022-08-06T02:41:30.796Z,92.0
2022-08-06T02:42:31.692Z,92.3
2022-08-06T02:43:32.398Z,92.5
2022-08-06T02:44:33.913Z,92.5
2022-08-06T02:45:35.633Z,93.0
2022-08-06T02:46:36.097Z,93.0
2022-08-06T02:47:56.392Z,92.7
2022-08-06T02:48:38.834Z,93.2
2022-08-06T02:49:40.422Z,92.9
2022-08-06T02:50:41.016Z,93.0
2022-08-06T02:52:10.750Z,93.1
2022-08-06T02:52:47.969Z,93.3
2022-08-06T02:54:04.769Z,93.3
2022-08-06T02:54:47.138Z,93.3
2022-08-06T02:55:47.978Z,93.5
2022-08-06T02:56:48.561Z,93.3
2022-08-06T02:57:51.417Z,93.2
2022-08-06T02:58:58.463Z,93.5
2022-08-06T02:59:55.378Z,93.4
2022-08-06T03:00:53.954Z,93.4
2022-08-06T03:01:55.572Z,93.5
2022-08-06T03:02:56.540Z,93.4
2022-08-06T03:03:59.743Z,93.6
2022-08-06T03:04:58.724Z,93.5
2022-08-06T03:05:59.318Z,94.3
2022-08-06T03:07:00.911Z,94.6
2022-08-06T03:08:01.504Z,94.7
2022-08-06T03:09:02.382Z,94.5
2022-08-06T03:10:02.995Z,95.3
2022-08-06T03:11:03.589Z,95.2
2022-08-06T03:12:04.185Z,94.9
2022-08-06T03:13:05.771Z,95.4
2022-08-06T03:14:13.330Z,95.9
2022-08-06T03:15:13.828Z,95.8
2022-08-06T03:16:23.449Z,95.7
2022-08-06T03:17:11.154Z,96.1
2022-08-06T03:18:11.740Z,95.8
2022-08-06T03:19:53.519Z,96.0
2022-08-06T03:20:16.514Z,96.1
2022-08-06T03:21:14.539Z,96.1
2022-08-06T03:22:18.603Z,96.1
2022-08-06T03:23:16.736Z,96.4
2022-08-06T03:24:17.333Z,96.6
2022-08-06T03:25:18.139Z,96.9
2022-08-06T03:26:19.511Z,96.8
2022-08-06T03:27:20.896Z,96.9
2022-08-06T03:28:22.765Z,97.6
2022-08-06T03:29:23.202Z,97.5
2022-08-06T03:30:31.932Z,97.8
2022-08-06T03:31:25.332Z,97.9
2022-08-06T03:32:51.626Z,97.9
2022-08-06T03:33:53.141Z,97.4
2022-08-06T03:34:30.103Z,97.5
2022-08-06T03:35:50.551Z,97.7
2022-08-06T03:36:33.281Z,98.1
2022-08-06T03:37:59.460Z,97.9
2022-08-06T03:38:37.000Z,98.1
2022-08-06T03:39:37.668Z,98.1
2022-08-06T03:40:38.271Z,98.2
2022-08-06T03:42:07.801Z,98.0
2022-08-06T03:42:43.983Z,98.2
2022-08-06T03:43:56.351Z,98.3
2022-08-06T03:44:46.265Z,98.0
2022-08-06T03:45:56.011Z,98.2
2022-08-06T03:46:47.817Z,98.1
2022-08-06T03:48:07.157Z,98.1
2022-08-06T03:48:50.818Z,98.1
2022-08-06T03:49:52.836Z,97.9
2022-08-06T03:50:53.008Z,98.4
2022-08-06T03:51:54.734Z,97.9
2022-08-06T03:52:56.194Z,97.8
2022-08-06T03:53:57.782Z,97.7
2022-08-06T03:54:59.373Z,97.5
2022-08-06T03:56:00.967Z,97.5
2022-08-06T03:57:07.742Z,97.7
2022-08-06T03:58:03.156Z,97.4
2022-08-06T03:59:04.632Z,97.2
2022-08-06T04:00:04.556Z,96.9
2022-08-06T04:01:05.359Z,96.6
2022-08-06T04:02:06.899Z,97.1
2022-08-06T04:03:08.491Z,96.7
2022-08-06T04:04:25.989Z,96.8
2022-08-06T04:05:11.558Z,96.6
2022-08-06T04:06:16.200Z,96.6
2022-08-06T04:07:14.744Z,96.7
2022-08-06T04:08:16.336Z,96.6
2022-08-06T04:09:17.506Z,96.0
2022-08-06T04:10:22.624Z,96.3
2022-08-06T04:12:14.508Z,95.7
2022-08-06T04:12:58.950Z,96.2
2022-08-06T04:14:03.723Z,96.0
2022-08-06T04:14:24.104Z,96.0
2022-08-06T04:15:25.693Z,95.7
2022-08-06T04:16:33.051Z,96.3
2022-08-06T04:17:32.679Z,95.8
2022-08-06T04:18:30.465Z,95.9
2022-08-06T04:19:32.829Z,96.1
2022-08-06T04:20:41.323Z,95.9
2022-08-06T04:23:00.011Z,95.9
2022-08-06T04:23:04.836Z,95.9
2022-08-06T04:23:38.922Z,95.8
2022-08-06T04:24:39.520Z,95.7
2022-08-06T04:25:40.158Z,95.4
2022-08-06T04:26:41.733Z,95.8
2022-08-06T04:27:53.830Z,95.8
2022-08-06T04:28:44.886Z,95.4
2022-08-06T04:29:56.899Z,95.4
2022-08-06T04:30:47.530Z,95.5
2022-08-06T04:32:11.943Z,95.1
2022-08-06T04:33:00.110Z,94.9
2022-08-06T04:33:51.674Z,95.4
2022-08-06T04:36:05.195Z,95.0
2022-08-06T04:36:05.995Z,95.1
2022-08-06T04:36:54.724Z,95.1
2022-08-06T04:37:55.323Z,95.2
2022-08-06T04:38:57.213Z,94.9
2022-08-06T04:39:58.072Z,95.4
2022-08-06T04:41:03.144Z,95.1
2022-08-06T04:42:06.032Z,95.2
2022-08-06T04:43:02.817Z,95.1
2022-08-06T04:44:03.420Z,94.8
2022-08-06T04:46:16.464Z,94.5
2022-08-06T04:46:18.103Z,94.8
2022-08-06T04:47:08.194Z,94.5
2022-08-06T04:48:09.789Z,94.8
2022-08-06T04:49:11.682Z,95.1
2022-08-06T04:50:12.977Z,94.5
2022-08-06T04:51:17.404Z,94.5
2022-08-06T04:52:35.886Z,94.5
2022-08-06T04:53:24.096Z,94.6
2022-08-06T04:54:19.350Z,94.7
2022-08-06T04:55:25.233Z,94.7
2022-08-06T04:56:22.538Z,94.6
2022-08-06T04:57:28.272Z,94.1
2022-08-06T04:58:32.774Z,94.7
2022-08-06T04:59:49.661Z,94.2
2022-08-06T05:00:33.606Z,94.3
2022-08-06T05:01:29.572Z,94.0
2022-08-06T05:02:31.185Z,93.9
2022-08-06T05:04:06.463Z,93.8
2022-08-06T05:04:33.334Z,93.5
2022-08-06T05:05:34.405Z,93.1
2022-08-06T05:06:35.873Z,93.4
2022-08-06T05:07:51.424Z,93.5
2022-08-06T05:08:37.086Z,93.1
2022-08-06T05:09:43.786Z,93.2
2022-08-06T05:10:39.283Z,92.9
2022-08-06T05:11:41.831Z,92.9
2022-08-06T05:12:42.470Z,92.9
2022-08-06T05:13:43.688Z,92.9
2022-08-06T05:14:44.564Z,93.4
2022-08-06T05:15:51.178Z,93.3
2022-08-06T05:16:52.554Z,93.0
2022-08-06T05:17:49.026Z,92.9
2022-08-06T05:19:20.638Z,92.4
2022-08-06T05:19:51.157Z,92.8
2022-08-06T05:20:51.758Z,92.3
2022-08-06T05:22:10.373Z,92.4
2022-08-06T05:22:54.942Z,92.3
2022-08-06T05:23:55.546Z,92.2
2022-08-06T05:25:02.655Z,92.2
2022-08-06T05:25:58.731Z,92.2
2022-08-06T05:26:59.333Z,92.2
2022-08-06T05:28:09.734Z,92.3
2022-08-06T05:29:02.293Z,92.2
2022-08-06T05:30:03.042Z,92.4
2022-08-06T05:31:03.644Z,92.0
2022-08-06T05:32:05.233Z,91.9
2022-08-06T05:33:07.305Z,91.7
2022-08-06T05:34:07.912Z,91.4
2022-08-06T05:35:08.512Z,89.2
2022-08-06T05:36:12.012Z,85.2
2022-08-06T05:37:11.667Z,79.1
2022-08-06T05:38:12.530Z,73.3
2022-08-06T05:39:56.905Z,67.2
2022-08-06T05:40:14.767Z,64.5
2022-08-06T05:41:15.419Z,61.2
2022-08-06T05:42:26.128Z,59.3
2022-08-06T05:43:17.572Z,57.8
2022-08-06T05:44:19.162Z,57.0
2022-08-06T05:45:19.979Z,55.7
2022-08-06T05:46:24.816Z,55.4
2022-08-06T05:47:22.915Z,53.5
2022-08-06T05:48:29.442Z,52.6
2022-08-06T05:49:57.890Z,52.1
2022-08-06T05:50:27.125Z,53.5
2022-08-06T05:51:44.941Z,52.4
2022-08-06T05:52:29.757Z,50.3
2022-08-06T05:54:02.513Z,49.9
2022-08-06T05:54:32.041Z,50.1
2022-08-06T05:55:38.187Z,48.5
2022-08-06T05:56:38.408Z,49.5
2022-08-06T05:57:40.919Z,48.7
2022-08-06T05:58:37.926Z,48.0
2022-08-06T05:59:56.921Z,48.2
2022-08-06T06:00:43.014Z,48.4
2022-08-06T06:01:41.713Z,48.2
2022-08-06T06:02:43.304Z,48.8
2022-08-06T06:03:44.969Z,48.3
2022-08-06T06:05:00.647Z,49.1
2022-08-06T06:06:06.417Z,45.9
2022-08-06T06:06:49.683Z,48.4
2022-08-06T06:08:09.686Z,48.2
2022-08-06T06:08:57.649Z,47.5
2022-08-06T06:10:02.923Z,46.0
2022-08-06T06:10:55.079Z,45.5
2022-08-06T06:12:01.520Z,47.0
2022-08-06T06:12:57.354Z,46.7
2022-08-06T06:13:58.408Z,46.3
2022-08-06T06:14:59.556Z,47.8
2022-08-06T06:16:04.489Z,47.0
2022-08-06T06:17:01.737Z,45.7
2022-08-06T06:18:02.354Z,46.3
2022-08-06T06:19:02.938Z,44.4
2022-08-06T06:20:07.076Z,44.0
2022-08-06T06:21:18.440Z,45.4
2022-08-06T06:22:07.723Z,45.8
2022-08-06T06:23:08.655Z,45.4
2022-08-06T06:24:10.250Z,44.3
2022-08-06T06:25:11.845Z,43.8
2022-08-06T06:26:32.484Z,43.9
2022-08-06T06:27:35.537Z,45.2
2022-08-06T06:28:27.652Z,44.3
2022-08-06T06:29:33.798Z,43.9
2022-08-06T06:30:33.075Z,43.5
2022-08-06T06:32:07.664Z,45.6
2022-08-06T06:32:30.904Z,44.8
2022-08-06T06:33:36.584Z,43.7
2022-08-06T06:34:25.768Z,42.3
2022-08-06T06:35:32.519Z,44.2
2022-08-06T06:36:27.981Z,44.3
2022-08-06T06:37:28.581Z,44.6
2022-08-06T06:38:30.176Z,43.1
2022-08-06T06:39:32.741Z,44.8
2022-08-06T06:40:32.703Z,44.0
2022-08-06T06:41:34.298Z,44.5
2022-08-06T06:42:35.892Z,43.1
2022-08-06T06:43:43.792Z,43.6
2022-08-06T06:45:03.419Z,42.5
2022-08-06T06:46:07.287Z,44.0
2022-08-06T06:46:44.809Z,47.3
2022-08-06T06:47:41.895Z,47.7
2022-08-06T06:48:42.676Z,46.2
2022-08-06T06:50:00.015Z,45.7
2022-08-06T06:50:45.864Z,45.7
2022-08-06T06:51:56.522Z,44.0
2022-08-06T06:52:49.060Z,44.0
2022-08-06T06:54:07.215Z,43.6
2022-08-06T06:55:00.212Z,47.1
2022-08-06T06:55:58.646Z,48.3
2022-08-06T06:56:54.441Z,48.1
2022-08-06T06:57:56.035Z,46.0
2022-08-06T06:58:56.638Z,45.2
2022-08-06T07:00:03.918Z,43.9
2022-08-06T07:01:27.404Z,43.5
2022-08-06T07:02:03.003Z,44.1
2022-08-06T07:03:02.071Z,43.5
2022-08-06T07:04:02.777Z,43.5
2022-08-06T07:05:03.414Z,46.5
2022-08-06T07:06:05.971Z,49.2
2022-08-06T07:07:07.790Z,50.1
2022-08-06T07:08:07.170Z,49.1
2022-08-06T07:09:14.480Z,48.3
2022-08-06T07:10:11.367Z,48.2
2022-08-06T07:11:11.011Z,46.2
2022-08-06T07:12:19.772Z,45.4
2022-08-06T07:13:15.460Z,45.4
2022-08-06T07:14:14.756Z,48.9
2022-08-06T07:15:18.475Z,48.2
2022-08-06T07:16:34.433Z,49.3
2022-08-06T07:17:46.278Z,48.3
2022-08-06T07:18:26.275Z,47.7
2022-08-06T07:19:22.110Z,48.0
2022-08-06T07:20:26.349Z,47.5
2022-08-06T07:21:24.303Z,50.6
2022-08-06T07:22:24.907Z,53.5
2022-08-06T07:24:08.596Z,55.3
2022-08-06T07:24:33.450Z,55.4
2022-08-06T07:25:29.696Z,55.2
2022-08-06T07:26:31.193Z,55.1
2022-08-06T07:27:37.464Z,55.0
2022-08-06T07:28:33.826Z,55.2
2022-08-06T07:29:48.353Z,53.4
2022-08-06T07:30:36.114Z,54.0
2022-08-06T07:31:36.926Z,55.9
2022-08-06T07:32:37.517Z,55.0
2022-08-06T07:33:59.654Z,51.6
2022-08-06T07:34:39.713Z,51.5
2022-08-06T07:35:41.308Z,52.7
2022-08-06T07:36:41.913Z,54.1
2022-08-06T07:37:43.650Z,53.5
2022-08-06T07:38:44.325Z,54.0
2022-08-06T07:39:45.994Z,55.5
2022-08-06T07:40:52.976Z,55.0
2022-08-06T07:42:07.174Z,55.4
2022-08-06T07:42:50.174Z,52.7
2022-08-06T07:43:51.794Z,55.7
2022-08-06T07:44:56.320Z,57.8
2022-08-06T07:45:55.231Z,59.4
2022-08-06T07:46:54.585Z,60.6
2022-08-06T07:47:56.019Z,61.9
2022-08-06T07:48:56.692Z,62.0
2022-08-06T07:50:00.944Z,61.2
2022-08-06T07:50:58.905Z,59.6
2022-08-06T07:51:59.507Z,59.8
2022-08-06T07:53:00.825Z,61.5
2022-08-06T07:54:06.970Z,61.4
2022-08-06T07:55:03.208Z,59.1
2022-08-06T07:56:03.808Z,55.5
2022-08-06T07:57:04.413Z,59.6
2022-08-06T07:58:05.038Z,59.8
2022-08-06T07:59:06.835Z,62.0
2022-08-06T08:00:07.252Z,62.9
2022-08-06T08:01:07.845Z,64.1
2022-08-06T08:02:09.408Z,64.3
2022-08-06T08:03:09.999Z,64.7
2022-08-06T08:04:34.257Z,62.4
2022-08-06T08:05:12.212Z,61.5
2022-08-06T08:06:13.806Z,61.1
2022-08-06T08:07:14.411Z,60.8
2022-08-06T08:08:15.009Z,62.5
2022-08-06T08:09:15.611Z,61.9
2022-08-06T08:10:17.206Z,63.8
2022-08-06T08:11:17.810Z,65.0
2022-08-06T08:12:29.511Z,63.9
2022-08-06T08:13:20.025Z,64.3
2022-08-06T08:14:22.076Z,62.0
2022-08-06T08:15:23.321Z,61.5
2022-08-06T08:16:28.696Z,61.4
2022-08-06T08:17:34.386Z,61.7
2022-08-06T08:18:27.507Z,62.9
2022-08-06T08:19:28.111Z,61.7
2022-08-06T08:20:34.678Z,59.8
2022-08-06T08:21:31.305Z,60.9
2022-08-06T08:22:32.581Z,60.2
2022-08-06T08:23:37.432Z,61.1
2022-08-06T08:24:34.782Z,60.8
2022-08-06T08:25:40.345Z,57.7
2022-08-06T08:27:03.518Z,55.9
2022-08-06T08:27:39.095Z,58.3
2022-08-06T08:28:40.419Z,58.9
2022-08-06T08:29:41.587Z,59.9
2022-08-06T08:30:43.181Z,57.8
2022-08-06T08:31:59.778Z,58.1
2022-08-06T08:32:46.529Z,58.8
2022-08-06T08:33:46.979Z,59.8
2022-08-06T08:34:52.316Z,58.5
2022-08-06T08:36:00.032Z,58.1
2022-08-06T08:36:51.010Z,57.2
2022-08-06T08:37:51.615Z,54.2
2022-08-06T08:38:53.136Z,53.6
2022-08-06T08:39:55.679Z,57.4
2022-08-06T08:40:55.337Z,58.3
2022-08-06T08:41:56.933Z,57.5
2022-08-06T08:42:57.554Z,55.7
2022-08-06T08:44:00.399Z,57.6
2022-08-06T08:44:59.764Z,55.7
2022-08-06T08:46:00.368Z,55.2
2022-08-06T08:47:00.970Z,54.3
2022-08-06T08:48:01.569Z,54.3
2022-08-06T08:49:04.173Z,53.8
2022-08-06T08:50:04.760Z,53.7
2022-08-06T08:51:06.355Z,53.5
2022-08-06T08:52:11.152Z,54.4
2022-08-06T08:53:09.021Z,55.2
2022-08-06T08:54:09.706Z,55.7
2022-08-06T08:57:09.514Z,55.7
2022-08-06T08:57:10.865Z,54.4
2022-08-06T08:58:39.359Z,52.7
2022-08-06T08:58:40.303Z,53.6
2022-08-06T08:59:59.416Z,52.6
2022-08-06T09:00:26.319Z,53.6
2022-08-06T09:01:53.157Z,53.8
2022-08-06T09:02:24.311Z,51.9
2022-08-06T09:03:23.128Z,51.6
2022-08-06T09:04:24.744Z,53.1
2022-08-06T09:05:25.294Z,53.7
2022-08-06T09:06:29.120Z,53.5
2022-08-06T09:07:36.431Z,53.2
2022-08-06T09:09:02.781Z,50.6
2022-08-06T09:09:32.347Z,52.0
2022-08-06T09:10:32.368Z,51.2
2022-08-06T09:12:04.904Z,51.7
2022-08-06T09:12:45.177Z,52.2
2022-08-06T09:13:51.447Z,52.9
2022-08-06T09:14:38.607Z,52.4
2022-08-06T09:15:40.572Z,53.6
2022-08-06T09:16:50.565Z,52.2
2022-08-06T09:18:26.144Z,53.4
2022-08-06T09:18:44.570Z,53.9
2022-08-06T09:19:45.196Z,53.9
2022-08-06T09:20:47.027Z,55.5
2022-08-06T09:21:51.098Z,53.2
2022-08-06T09:22:48.990Z,54.8
2022-08-06T09:23:58.466Z,55.0
2022-08-06T09:24:51.188Z,55.7
2022-08-06T09:25:52.747Z,54.9
2022-08-06T09:26:55.255Z,52.8
2022-08-06T09:27:55.347Z,53.3
2022-08-06T09:28:56.903Z,52.9
2022-08-06T09:30:04.678Z,53.1
2022-08-06T09:30:59.104Z,52.5
2022-08-06T09:32:00.508Z,52.8
2022-08-06T09:33:03.928Z,53.2
2022-08-06T09:34:28.531Z,52.6
2022-08-06T09:35:05.001Z,53.0
2022-08-06T09:36:04.875Z,53.7
2022-08-06T09:37:06.251Z,53.9
2022-08-06T09:38:06.867Z,53.3
2022-08-06T09:39:11.307Z,54.0
2022-08-06T09:40:13.729Z,54.1
2022-08-06T09:41:15.334Z,54.3
2022-08-06T09:42:11.282Z,53.6
2022-08-06T09:43:12.879Z,53.1
2022-08-06T09:44:35.430Z,54.4
2022-08-06T09:45:17.505Z,53.9
2022-08-06T09:46:16.692Z,50.7
2022-08-06T09:47:22.223Z,50.3
2022-08-06T09:48:22.396Z,50.9
2022-08-06T09:49:49.025Z,50.6
2022-08-06T09:50:23.880Z,52.3
2022-08-06T09:51:50.229Z,52.6
2022-08-06T09:52:26.230Z,51.9
2022-08-06T09:53:27.827Z,52.6
2022-08-06T09:54:29.421Z,52.1
2022-08-06T09:55:30.026Z,53.3
2022-08-06T09:56:31.623Z,53.7
2022-08-06T09:57:36.299Z,54.4
2022-08-06T09:58:33.822Z,53.8
2022-08-06T09:59:34.428Z,53.7
2022-08-06T10:00:35.029Z,55.7
2022-08-06T10:01:36.760Z,52.6
2022-08-06T10:02:37.232Z,50.6
2022-08-06T10:04:03.220Z,50.5
2022-08-06T10:04:42.310Z,49.5
2022-08-06T10:05:50.086Z,49.7
2022-08-06T10:06:41.685Z,50.9
2022-08-06T10:07:42.310Z,49.5
2022-08-06T10:08:43.112Z,51.3
2022-08-06T10:09:45.150Z,52.2
2022-08-06T10:10:45.403Z,52.8
2022-08-06T10:11:49.905Z,52.2
2022-08-06T10:12:48.521Z,50.8
2022-08-06T10:13:49.124Z,51.8
2022-08-06T10:14:50.119Z,52.2
2022-08-06T10:16:00.712Z,51.8
2022-08-06T10:16:52.363Z,52.4
2022-08-06T10:17:53.067Z,52.8
2022-08-06T10:18:55.946Z,50.5
2022-08-06T10:19:55.184Z,52.5
2022-08-06T10:20:55.789Z,49.6
2022-08-06T10:21:56.394Z,50.2
2022-08-06T10:22:57.627Z,51.9
2022-08-06T10:23:58.594Z,52.0
2022-08-06T10:24:59.434Z,47.6
2022-08-06T10:26:00.037Z,49.7
2022-08-06T10:27:02.893Z,49.4
2022-08-06T10:28:03.228Z,50.5
2022-08-06T10:29:03.838Z,52.2
2022-08-06T10:30:04.454Z,52.7
2022-08-06T10:31:05.059Z,52.4
2022-08-06T10:32:12.163Z,52.5
2022-08-06T10:33:08.801Z,50.9
2022-08-06T10:34:09.842Z,52.4
2022-08-06T10:35:11.973Z,50.5
2022-08-06T10:36:11.064Z,50.6
2022-08-06T10:37:49.479Z,48.5
2022-08-06T10:38:15.041Z,47.3
2022-08-06T10:40:09.867Z,48.3
2022-08-06T10:40:18.635Z,46.4
2022-08-06T10:41:28.056Z,46.2
2022-08-06T10:42:22.102Z,45.5
2022-08-06T10:43:21.014Z,46.3
2022-08-06T10:44:21.623Z,46.6
2022-08-06T10:45:23.218Z,47.1
2022-08-06T10:46:26.063Z,48.4
2022-08-06T10:49:00.181Z,47.1
2022-08-06T10:50:23.338Z,46.8
2022-08-06T10:50:31.125Z,46.6
2022-08-06T10:50:40.601Z,45.8
2022-08-06T10:51:57.123Z,47.0
2022-08-06T10:52:33.422Z,45.7
2022-08-06T10:54:01.610Z,45.0
2022-08-06T10:54:35.625Z,44.5
2022-08-06T10:55:44.315Z,43.1
2022-08-06T10:56:44.255Z,44.0
2022-08-06T10:57:39.544Z,46.2
2022-08-06T10:58:41.050Z,46.6
2022-08-06T10:59:42.035Z,47.5
2022-08-06T11:00:44.948Z,48.1
2022-08-06T11:01:47.104Z,49.4
2022-08-06T11:02:56.365Z,45.6
2022-08-06T11:03:47.275Z,43.8
2022-08-06T11:04:47.881Z,45.9
2022-08-06T11:05:54.031Z,46.1
2022-08-06T11:06:52.491Z,46.1
2022-08-06T11:08:09.362Z,46.4
2022-08-06T11:08:59.260Z,46.2
2022-08-06T11:09:59.415Z,45.7
2022-08-06T11:10:56.519Z,47.2
2022-08-06T11:12:06.272Z,45.8
2022-08-06T11:12:58.721Z,45.0
2022-08-06T11:14:03.152Z,44.1
2022-08-06T11:15:01.573Z,43.0
2022-08-06T11:16:02.322Z,43.4
2022-08-06T11:17:03.922Z,42.9
2022-08-06T11:18:05.489Z,41.7
2022-08-06T11:19:07.261Z,43.1
2022-08-06T11:20:13.997Z,43.4
2022-08-06T11:21:09.337Z,44.5
2022-08-06T11:22:12.019Z,44.7
2022-08-06T11:23:12.163Z,44.1
2022-08-06T11:24:13.758Z,44.3
2022-08-06T11:25:26.801Z,44.9
2022-08-06T11:26:16.313Z,45.8
2022-08-06T11:27:16.931Z,46.4
2022-08-06T11:28:18.532Z,46.8
2022-08-06T11:29:19.303Z,46.1
2022-08-06T11:30:26.680Z,46.1
2022-08-06T11:31:20.536Z,47.7
2022-08-06T11:32:22.136Z,48.4
2022-08-06T11:33:23.733Z,47.6
2022-08-06T11:34:34.460Z,48.2
2022-08-06T11:35:26.929Z,50.1
2022-08-06T11:36:28.526Z,49.4
2022-08-06T11:38:03.495Z,49.9
2022-08-06T11:38:30.728Z,49.8
2022-08-06T11:39:34.405Z,49.7
2022-08-06T11:40:32.932Z,48.7
2022-08-06T11:41:50.204Z,48.1
2022-08-06T11:42:34.253Z,46.1
2022-08-06T11:43:35.856Z,46.1
2022-08-06T11:44:37.448Z,45.9
2022-08-06T11:46:20.512Z,45.1
2022-08-06T11:46:47.810Z,45.3
2022-08-06T11:47:40.592Z,43.5
2022-08-06T11:48:41.543Z,43.8
2022-08-06T11:49:43.763Z,44.9
2022-08-06T11:50:43.745Z,44.3
2022-08-06T11:51:44.502Z,43.7
2022-08-06T11:52:45.166Z,44.4
2022-08-06T11:53:46.574Z,45.7
2022-08-06T11:54:47.920Z,43.7
2022-08-06T11:55:48.543Z,42.3
2022-08-06T11:56:49.150Z,43.1
2022-08-06T11:57:50.924Z,42.7
2022-08-06T11:58:51.694Z,43.2
2022-08-06T11:59:52.596Z,44.3
2022-08-06T12:00:53.198Z,42.4
2022-08-06T12:01:53.879Z,42.9
2022-08-06T12:02:56.058Z,44.4
2022-08-06T12:03:56.029Z,44.4
2022-08-06T12:04:56.631Z,44.5
2022-08-06T12:05:58.442Z,46.1
2022-08-06T12:06:58.931Z,45.8
2022-08-06T12:07:59.529Z,45.8
2022-08-06T12:09:00.135Z,46.2
2022-08-06T12:10:01.734Z,46.8
2022-08-06T12:11:02.396Z,45.0
2022-08-06T12:12:02.999Z,44.4
2022-08-06T12:13:03.605Z,44.4
2022-08-06T12:14:33.996Z,44.1
2022-08-06T12:15:11.269Z,43.3
2022-08-06T12:16:12.288Z,44.1
2022-08-06T12:17:09.998Z,44.6
2022-08-06T12:18:19.380Z,44.5
2022-08-06T12:19:12.201Z,43.1
2022-08-06T12:20:13.224Z,43.7
2022-08-06T12:21:14.399Z,40.8
2022-08-06T12:22:15.601Z,43.6
2022-08-06T12:23:16.221Z,43.2
2022-08-06T12:24:17.820Z,41.8
2022-08-06T12:25:18.437Z,41.5
2022-08-06T12:26:33.001Z,42.5
2022-08-06T12:27:24.308Z,42.3
2022-08-06T12:28:23.188Z,43.1
2022-08-06T12:29:41.759Z,43.3
2022-08-06T12:30:36.152Z,42.7
2022-08-06T12:31:36.058Z,41.4
2022-08-06T12:32:29.135Z,41.2
2022-08-06T12:33:29.736Z,41.3
2022-08-06T12:34:32.327Z,42.9
2022-08-06T12:35:33.186Z,42.0
2022-08-06T12:36:35.231Z,42.2
2022-08-06T12:37:41.448Z,43.3
2022-08-06T12:38:36.993Z,42.6
2022-08-06T12:39:45.645Z,42.1
2022-08-06T12:40:39.260Z,42.3
2022-08-06T12:41:45.128Z,41.4
2022-08-06T12:42:53.084Z,42.1
2022-08-06T12:43:56.546Z,41.8
2022-08-06T12:44:56.926Z,40.6
2022-08-06T12:46:07.201Z,40.5
2022-08-06T12:46:47.408Z,41.9
2022-08-06T12:48:03.465Z,43.5
2022-08-06T12:48:50.613Z,42.3
2022-08-06T12:49:51.625Z,42.6
2022-08-06T12:50:52.250Z,42.6
2022-08-06T12:51:54.714Z,42.7
2022-08-06T12:52:54.446Z,43.1
2022-08-06T12:53:55.064Z,44.6
2022-08-06T12:54:55.669Z,44.4
2022-08-06T12:55:57.422Z,42.9
2022-08-06T12:56:58.422Z,43.7
2022-08-06T12:58:02.555Z,44.6
2022-08-06T12:59:00.619Z,45.7
2022-08-06T13:00:01.238Z,45.2
2022-08-06T13:01:01.889Z,45.3
2022-08-06T13:02:07.853Z,45.1
2022-08-06T13:03:04.066Z,46.3
2022-08-06T13:04:08.860Z,46.7
2022-08-06T13:05:06.351Z,46.0
2022-08-06T13:06:07.947Z,45.4
2022-08-06T13:07:14.190Z,46.2
2022-08-06T13:08:10.162Z,45.8
2022-08-06T13:09:10.788Z,45.8
2022-08-06T13:10:34.938Z,46.3
2022-08-06T13:11:12.985Z,44.7
2022-08-06T13:12:19.768Z,44.9
2022-08-06T13:14:14.181Z,44.9
2022-08-06T13:14:18.955Z,43.7
2022-08-06T13:15:22.527Z,44.4
2022-08-06T13:16:23.053Z,44.6
2022-08-06T13:17:54.979Z,42.7
2022-08-06T13:18:41.623Z,43.6
2022-08-06T13:19:32.437Z,41.8
2022-08-06T13:20:32.999Z,41.9
2022-08-06T13:21:56.388Z,42.2
2022-08-06T13:22:28.602Z,41.8
2022-08-06T13:23:30.199Z,41.8
2022-08-06T13:24:34.581Z,41.3
2022-08-06T13:25:52.778Z,42.1
2022-08-06T13:26:34.998Z,42.1
2022-08-06T13:27:35.599Z,43.0
2022-08-06T13:28:38.480Z,40.9
2022-08-06T13:30:33.520Z,40.4
2022-08-06T13:30:38.883Z,39.7
2022-08-06T13:31:58.564Z,39.7
2022-08-06T13:32:41.617Z,41.7
2022-08-06T13:34:04.016Z,42.4
2022-08-06T13:34:44.386Z,43.2